Temp: 6.4°C   Baro: 1020.3mb
  Wind: 2.9mph   Dir: WNW (291°)
  Rain: 7.6mm (0.0mm/hr)
  Solar: 0W/m2  Hum: 82%
 
Bath Spa Weather Station Historical Data
Daily Summary for August 5, 2019 Units:  Both    English   Metric
Daily Weekly Monthly Yearly Custom
  High: Low: Average:
Temperature: 39.6 °F /  4.2 °C 26.6 °F /  -3 °C 34.5 °F /  1.4 °C
Dew Point: 37.2 °F /  2.9 °C 24.6 °F /  -4.1 °C 32.1 °F /  0.1 °C
Humidity: 93% 86% 91%
Wind Speed: 0.6mph /  1km/h - 0mph /  0km/h
Wind Gust: 2mph /  3.2km/h - -
Wind- - North
Pressure: 30.76 in /  1041.5 hPa 30.65 in /  1037.8 hPa -
Precipitation: 0.00 in /  0 mm    
Historical Graphs
 
 
Tabular Data for August 5, 2019
Time Temperature Dew Point Pressure Wind Wind Speed Wind Gust Humidity Rainfall Rate (Hourly) solar
00:04 27.2 °F /  -2.7 °C 25.2 °F /  -3.8 °C 30.76in /  1041.5hPa Calm     92% 0.00in /  0mm 0 W/m2
00:09 27.2 °F /  -2.7 °C 25.2 °F /  -3.8 °C 30.76in /  1041.5hPa Calm     92% 0.00in /  0mm 0 W/m2
00:14 27.2 °F /  -2.7 °C 25.2 °F /  -3.8 °C 30.76in /  1041.5hPa Calm     92% 0.00in /  0mm 0 W/m2
00:19 27 °F /  -2.8 °C 25.1 °F /  -3.8 °C 30.76in /  1041.5hPa Calm     92% 0.00in /  0mm 0 W/m2
00:24 27 °F /  -2.8 °C 25 °F /  -3.9 °C 30.76in /  1041.5hPa Calm     92% 0.00in /  0mm 0 W/m2
00:29 27 °F /  -2.8 °C 25 °F /  -3.9 °C 30.76in /  1041.5hPa Calm     92% 0.00in /  0mm 0 W/m2
00:34 27 °F /  -2.8 °C 25 °F /  -3.9 °C 30.76in /  1041.5hPa Calm     92% 0.00in /  0mm 0 W/m2
00:39 26.9 °F /  -2.8 °C 24.9 °F /  -3.9 °C 30.76in /  1041.5hPa Calm     92% 0.00in /  0mm 0 W/m2
00:44 26.8 °F /  -2.9 °C 24.8 °F /  -4 °C 30.76in /  1041.5hPa Calm     92% 0.00in /  0mm 0 W/m2
00:49 26.8 °F /  -2.9 °C 24.8 °F /  -4 °C 30.76in /  1041.5hPa Calm     92% 0.00in /  0mm 0 W/m2
00:54 26.8 °F /  -2.9 °C 24.8 °F /  -4 °C 30.76in /  1041.5hPa Calm     92% 0.00in /  0mm 0 W/m2
00:59 26.7 °F /  -2.9 °C 24.7 °F /  -4.1 °C 30.76in /  1041.5hPa Calm     92% 0.00in /  0mm 0 W/m2
01:04 26.7 °F /  -2.9 °C 24.7 °F /  -4.1 °C 30.76in /  1041.5hPa Calm     92% 0.00in /  0mm 0 W/m2
01:09 26.6 °F /  -3 °C 24.6 °F /  -4.1 °C 30.76in /  1041.5hPa Calm     92% 0.00in /  0mm 0 W/m2
01:14 26.6 °F /  -3 °C 24.6 °F /  -4.1 °C 30.76in /  1041.5hPa Calm     92% 0.00in /  0mm 0 W/m2
01:19 26.7 °F /  -2.9 °C 24.7 °F /  -4.1 °C 30.76in /  1041.5hPa Calm     92% 0.00in /  0mm 0 W/m2
01:24 26.7 °F /  -2.9 °C 24.7 °F /  -4.1 °C 30.76in /  1041.5hPa Calm     92% 0.00in /  0mm 0 W/m2
01:29 26.6 °F /  -3 °C 24.6 °F /  -4.1 °C 30.76in /  1041.5hPa Calm     92% 0.00in /  0mm 0 W/m2
01:34 26.6 °F /  -3 °C 24.6 °F /  -4.1 °C 30.76in /  1041.5hPa Calm     92% 0.00in /  0mm 0 W/m2
01:39 26.8 °F /  -2.9 °C 24.8 °F /  -4 °C 30.76in /  1041.5hPa Calm     92% 0.00in /  0mm 0 W/m2
01:44 27 °F /  -2.8 °C 25 °F /  -3.9 °C 30.76in /  1041.5hPa Calm     92% 0.00in /  0mm 0 W/m2
01:49 27 °F /  -2.8 °C 25 °F /  -3.9 °C 30.76in /  1041.5hPa Calm     92.2% 0.00in /  0mm 0 W/m2
01:54 27.1 °F /  -2.7 °C 25.3 °F /  -3.7 °C 30.76in /  1041.5hPa Calm     93% 0.00in /  0mm 0 W/m2
01:59 27.2 °F /  -2.7 °C 25.4 °F /  -3.7 °C 30.76in /  1041.5hPa Calm     92.9% 0.00in /  0mm 0 W/m2
02:04 27.3 °F /  -2.6 °C 25.5 °F /  -3.6 °C 30.76in /  1041.5hPa Calm     92.7% 0.00in /  0mm 0 W/m2
02:09 27.5 °F /  -2.5 °C 25.7 °F /  -3.5 °C 30.76in /  1041.5hPa Calm     92.8% 0.00in /  0mm 0 W/m2
02:14 27.5 °F /  -2.5 °C 25.7 °F /  -3.5 °C 30.76in /  1041.5hPa Calm     93% 0.00in /  0mm 0 W/m2
02:19 27.5 °F /  -2.5 °C 25.7 °F /  -3.5 °C 30.76in /  1041.5hPa Calm     92.8% 0.00in /  0mm 0 W/m2
02:24 27.5 °F /  -2.5 °C 25.7 °F /  -3.5 °C 30.76in /  1041.5hPa Calm     92.9% 0.00in /  0mm 0 W/m2
02:29 27.5 °F /  -2.5 °C 25.7 °F /  -3.5 °C 30.76in /  1041.5hPa Calm     93% 0.00in /  0mm 0 W/m2
02:34 27.8 °F /  -2.3 °C 25.9 °F /  -3.4 °C 30.76in /  1041.5hPa Calm     92.7% 0.00in /  0mm 0 W/m2
02:39 27.9 °F /  -2.3 °C 26.1 °F /  -3.3 °C 30.76in /  1041.5hPa Calm     93% 0.00in /  0mm 0 W/m2
02:44 28 °F /  -2.2 °C 26.2 °F /  -3.2 °C 30.76in /  1041.5hPa Calm     93% 0.00in /  0mm 0 W/m2
02:49 28 °F /  -2.2 °C 26.2 °F /  -3.2 °C 30.75in /  1041.2hPa Calm     93% 0.00in /  0mm 0 W/m2
02:54 27.9 °F /  -2.3 °C 26.1 °F /  -3.3 °C 30.75in /  1041.2hPa Calm     92.8% 0.00in /  0mm 0 W/m2
02:59 28 °F /  -2.2 °C 26.2 °F /  -3.2 °C 30.75in /  1041.2hPa Calm     93% 0.00in /  0mm 0 W/m2
03:04 28 °F /  -2.2 °C 26.2 °F /  -3.2 °C 30.75in /  1041.2hPa Calm     93% 0.00in /  0mm 0 W/m2
03:09 28.1 °F /  -2.2 °C 26.3 °F /  -3.2 °C 30.75in /  1041.2hPa Calm     93% 0.00in /  0mm 0 W/m2
03:14 28.2 °F /  -2.1 °C 26.4 °F /  -3.1 °C 30.75in /  1041.2hPa Calm     93% 0.00in /  0mm 0 W/m2
03:19 28.4 °F /  -2 °C 26.6 °F /  -3 °C 30.74in /  1040.9hPa Calm     93% 0.00in /  0mm 0 W/m2
03:24 28.5 °F /  -1.9 °C 26.7 °F /  -2.9 °C 30.74in /  1040.9hPa Calm     93% 0.00in /  0mm 0 W/m2
03:29 28.6 °F /  -1.9 °C 26.8 °F /  -2.9 °C 30.75in /  1041.2hPa Calm     93% 0.00in /  0mm 0 W/m2
03:34 28.6 °F /  -1.9 °C 26.8 °F /  -2.9 °C 30.75in /  1041.2hPa Calm     93% 0.00in /  0mm 0 W/m2
03:39 28.8 °F /  -1.8 °C 27 °F /  -2.8 °C 30.74in /  1040.9hPa Calm     93% 0.00in /  0mm 0 W/m2
03:44 28.8 °F /  -1.8 °C 27 °F /  -2.8 °C 30.74in /  1040.9hPa Calm     93% 0.00in /  0mm 0 W/m2
03:49 28.9 °F /  -1.7 °C 27.1 °F /  -2.7 °C 30.74in /  1040.9hPa Calm     93% 0.00in /  0mm 0 W/m2
03:54 28.9 °F /  -1.7 °C 27.1 °F /  -2.7 °C 30.74in /  1040.9hPa Calm     93% 0.00in /  0mm 0 W/m2
03:59 28.9 °F /  -1.7 °C 27.1 °F /  -2.7 °C 30.74in /  1040.9hPa Calm     93% 0.00in /  0mm 0 W/m2
04:04 28.8 °F /  -1.8 °C 27 °F /  -2.8 °C 30.74in /  1040.9hPa Calm     93% 0.00in /  0mm 0 W/m2
04:09 28.8 °F /  -1.8 °C 27 °F /  -2.8 °C 30.74in /  1040.9hPa Calm     93% 0.00in /  0mm 0 W/m2
04:14 28.8 °F /  -1.8 °C 27 °F /  -2.8 °C 30.74in /  1040.9hPa Calm     93% 0.00in /  0mm 0 W/m2
04:19 28.9 °F /  -1.7 °C 27.1 °F /  -2.7 °C 30.74in /  1040.9hPa Calm     93% 0.00in /  0mm 0 W/m2
04:24 28.9 °F /  -1.7 °C 27.1 °F /  -2.7 °C 30.74in /  1040.9hPa Calm     93% 0.00in /  0mm 0 W/m2
04:29 29.1 °F /  -1.6 °C 27.3 °F /  -2.6 °C 30.74in /  1040.9hPa Calm     93% 0.00in /  0mm 0 W/m2
04:34 29.1 °F /  -1.6 °C 27.3 °F /  -2.6 °C 30.73in /  1040.5hPa Calm     93% 0.00in /  0mm 0 W/m2
04:39 29 °F /  -1.7 °C 27.2 °F /  -2.7 °C 30.74in /  1040.9hPa Calm     93% 0.00in /  0mm 0 W/m2
04:44 29 °F /  -1.7 °C 27.2 °F /  -2.7 °C 30.73in /  1040.5hPa Calm     93% 0.00in /  0mm 0 W/m2
04:49 29.1 °F /  -1.6 °C 27.3 °F /  -2.6 °C 30.73in /  1040.5hPa Calm     93% 0.00in /  0mm 0 W/m2
04:54 29.2 °F /  -1.6 °C 27.4 °F /  -2.6 °C 30.73in /  1040.5hPa Calm     93% 0.00in /  0mm 0 W/m2
04:59 29.3 °F /  -1.5 °C 27.5 °F /  -2.5 °C 30.73in /  1040.5hPa Calm     93% 0.00in /  0mm 0 W/m2
05:04 29.3 °F /  -1.5 °C 27.5 °F /  -2.5 °C 30.73in /  1040.5hPa Calm     93% 0.00in /  0mm 0 W/m2
05:09 29.3 °F /  -1.5 °C 27.5 °F /  -2.5 °C 30.73in /  1040.5hPa Calm     93% 0.00in /  0mm 0 W/m2
05:14 29.4 °F /  -1.4 °C 27.6 °F /  -2.4 °C 30.73in /  1040.5hPa Calm     93% 0.00in /  0mm 0 W/m2
05:19 29.5 °F /  -1.4 °C 27.7 °F /  -2.4 °C 30.73in /  1040.5hPa Calm     93% 0.00in /  0mm 0 W/m2
05:24 29.7 °F /  -1.3 °C 27.9 °F /  -2.3 °C 30.73in /  1040.5hPa Calm     93% 0.00in /  0mm 0 W/m2
05:29 29.7 °F /  -1.3 °C 27.9 °F /  -2.3 °C 30.73in /  1040.5hPa Calm     93% 0.00in /  0mm 0 W/m2
05:34 29.8 °F /  -1.2 °C 28 °F /  -2.2 °C 30.73in /  1040.5hPa Calm     93% 0.00in /  0mm 0 W/m2
05:39 29.8 °F /  -1.2 °C 28 °F /  -2.2 °C 30.72in /  1040.2hPa Calm     93% 0.00in /  0mm 0 W/m2
05:44 29.8 °F /  -1.2 °C 28 °F /  -2.2 °C 30.72in /  1040.2hPa Calm     93% 0.00in /  0mm 0 W/m2
05:49 30 °F /  -1.1 °C 28.2 °F /  -2.1 °C 30.72in /  1040.2hPa North 0.2mph /  0.3km/h 1mph /  1.6km/h 93% 0.00in /  0mm 0 W/m2
05:54 30 °F /  -1.1 °C 28.2 °F /  -2.1 °C 30.72in /  1040.2hPa Calm   1mph /  1.6km/h 93% 0.00in /  0mm 0 W/m2
05:59 30 °F /  -1.1 °C 28.2 °F /  -2.1 °C 30.72in /  1040.2hPa Calm   1mph /  1.6km/h 93% 0.00in /  0mm 0 W/m2
06:04 30.2 °F /  -1 °C 28.4 °F /  -2 °C 30.72in /  1040.2hPa Calm   1mph /  1.6km/h 93% 0.00in /  0mm 0 W/m2
06:09 30.2 °F /  -1 °C 28.4 °F /  -2 °C 30.72in /  1040.2hPa Calm   1mph /  1.6km/h 93% 0.00in /  0mm 0 W/m2
06:14 30.2 °F /  -1 °C 28.4 °F /  -2 °C 30.72in /  1040.2hPa North 0.6mph /  1km/h 2mph /  3.2km/h 93% 0.00in /  0mm 0 W/m2
06:19 30.4 °F /  -0.9 °C 28.6 °F /  -1.9 °C 30.72in /  1040.2hPa Calm     93% 0.00in /  0mm 0 W/m2
06:24 30.6 °F /  -0.8 °C 28.8 °F /  -1.8 °C 30.72in /  1040.2hPa Calm     93% 0.00in /  0mm 0 W/m2
06:29 30.6 °F /  -0.8 °C 28.8 °F /  -1.8 °C 30.72in /  1040.2hPa Calm     93% 0.00in /  0mm 0 W/m2
06:34 30.6 °F /  -0.8 °C 28.8 °F /  -1.8 °C 30.72in /  1040.2hPa Calm     93% 0.00in /  0mm 0 W/m2
06:39 30.6 °F /  -0.8 °C 28.8 °F /  -1.8 °C 30.72in /  1040.2hPa Calm     93% 0.00in /  0mm 0 W/m2
06:44 30.7 °F /  -0.7 °C 28.9 °F /  -1.7 °C 30.72in /  1040.2hPa North 0.3mph /  0.5km/h 1mph /  1.6km/h 93% 0.00in /  0mm 0 W/m2
06:49 30.9 °F /  -0.6 °C 29.1 °F /  -1.6 °C 30.72in /  1040.2hPa Calm   1mph /  1.6km/h 93% 0.00in /  0mm 0 W/m2
06:54 30.9 °F /  -0.6 °C 29.1 °F /  -1.6 °C 30.72in /  1040.2hPa Calm     93% 0.00in /  0mm 0 W/m2
06:59 30.9 °F /  -0.6 °C 29.1 °F /  -1.6 °C 30.72in /  1040.2hPa North 0.2mph /  0.3km/h 1mph /  1.6km/h 93% 0.00in /  0mm 0 W/m2
07:04 31.1 °F /  -0.5 °C 29.3 °F /  -1.5 °C 30.72in /  1040.2hPa Calm   1mph /  1.6km/h 93% 0.00in /  0mm 0 W/m2
07:09 31.1 °F /  -0.5 °C 29.3 °F /  -1.5 °C 30.72in /  1040.2hPa Calm     93% 0.00in /  0mm 0 W/m2
07:14 31.2 °F /  -0.4 °C 29.4 °F /  -1.4 °C 30.72in /  1040.2hPa Calm   1mph /  1.6km/h 93% 0.00in /  0mm 0 W/m2
07:19 31.3 °F /  -0.4 °C 29.5 °F /  -1.4 °C 30.72in /  1040.2hPa Calm   1mph /  1.6km/h 93% 0.00in /  0mm 0 W/m2
07:24 31.4 °F /  -0.3 °C 29.6 °F /  -1.3 °C 30.72in /  1040.2hPa Calm   1mph /  1.6km/h 93% 0.00in /  0mm 0 W/m2
07:29 31.3 °F /  -0.4 °C 29.5 °F /  -1.4 °C 30.72in /  1040.2hPa Calm     93% 0.00in /  0mm 0 W/m2
07:34 31.5 °F /  -0.3 °C 29.7 °F /  -1.3 °C 30.72in /  1040.2hPa Calm     93% 0.00in /  0mm 0 W/m2
07:39 31.5 °F /  -0.3 °C 29.7 °F /  -1.3 °C 30.72in /  1040.2hPa Calm     93% 0.00in /  0mm 0 W/m2
07:44 31.5 °F /  -0.3 °C 29.7 °F /  -1.3 °C 30.72in /  1040.2hPa Calm     93% 0.00in /  0mm 0 W/m2
07:49 31.6 °F /  -0.2 °C 29.8 °F /  -1.2 °C 30.73in /  1040.5hPa Calm     93% 0.00in /  0mm 0 W/m2
07:54 31.6 °F /  -0.2 °C 29.8 °F /  -1.2 °C 30.73in /  1040.5hPa North 0.1mph /  0.2km/h 1mph /  1.6km/h 93% 0.00in /  0mm 0 W/m2
07:59 31.6 °F /  -0.2 °C 29.8 °F /  -1.2 °C 30.73in /  1040.5hPa Calm     93% 0.00in /  0mm 0 W/m2
08:04 31.8 °F /  -0.1 °C 30 °F /  -1.1 °C 30.73in /  1040.5hPa Calm     93% 0.00in /  0mm 0 W/m2
08:09 31.8 °F /  -0.1 °C 30 °F /  -1.1 °C 30.73in /  1040.5hPa Calm     93% 0.00in /  0mm 0 W/m2
08:14 31.7 °F /  -0.2 °C 29.9 °F /  -1.2 °C 30.73in /  1040.5hPa Calm     93% 0.00in /  0mm 0 W/m2
08:19 31.8 °F /  -0.1 °C 30 °F /  -1.1 °C 30.73in /  1040.5hPa Calm     93% 0.00in /  0mm 0 W/m2
08:24 31.8 °F /  -0.1 °C 30 °F /  -1.1 °C 30.73in /  1040.5hPa Calm     93% 0.00in /  0mm 0 W/m2
08:29 31.9 °F /  -0.1 °C 30.1 °F /  -1.1 °C 30.73in /  1040.5hPa Calm     93% 0.00in /  0mm 0 W/m2
08:34 32 °F /  0 °C 30.2 °F /  -1 °C 30.73in /  1040.5hPa Calm     93% 0.00in /  0mm 0 W/m2
08:39 32.2 °F /  0.1 °C 30.4 °F /  -0.9 °C 30.73in /  1040.5hPa Calm     93% 0.00in /  0mm 5 W/m2
08:44 32.3 °F /  0.2 °C 30.5 °F /  -0.8 °C 30.73in /  1040.5hPa Calm     93% 0.00in /  0mm 7 W/m2
08:49 32.2 °F /  0.1 °C 30.4 °F /  -0.9 °C 30.73in /  1040.5hPa Calm     93% 0.00in /  0mm 11 W/m2
08:54 32.3 °F /  0.2 °C 30.5 °F /  -0.8 °C 30.73in /  1040.5hPa North 0.2mph /  0.3km/h 1mph /  1.6km/h 93% 0.00in /  0mm 12 W/m2
08:59 32.2 °F /  0.1 °C 30.4 °F /  -0.9 °C 30.73in /  1040.5hPa Calm   1mph /  1.6km/h 93% 0.00in /  0mm 12 W/m2
09:04 32.4 °F /  0.2 °C 30.6 °F /  -0.8 °C 30.73in /  1040.5hPa Calm     93% 0.00in /  0mm 14 W/m2
09:09 32.4 °F /  0.2 °C 30.6 °F /  -0.8 °C 30.73in /  1040.5hPa Calm     93% 0.00in /  0mm 16 W/m2
09:14 32.4 °F /  0.2 °C 30.6 °F /  -0.8 °C 30.73in /  1040.5hPa North 0.1mph /  0.2km/h 2mph /  3.2km/h 93% 0.00in /  0mm 18 W/m2
09:19 32.4 °F /  0.2 °C 30.6 °F /  -0.8 °C 30.73in /  1040.5hPa North 0.1mph /  0.2km/h 2mph /  3.2km/h 93% 0.00in /  0mm 21 W/m2
09:24 32.4 °F /  0.2 °C 30.6 °F /  -0.8 °C 30.73in /  1040.5hPa Calm   1mph /  1.6km/h 93% 0.00in /  0mm 23 W/m2
09:29 32.5 °F /  0.3 °C 30.7 °F /  -0.7 °C 30.73in /  1040.5hPa Calm     93% 0.00in /  0mm 25 W/m2
09:34 32.5 °F /  0.3 °C 30.7 °F /  -0.7 °C 30.73in /  1040.5hPa Calm     93% 0.00in /  0mm 23 W/m2
09:39 32.5 °F /  0.3 °C 30.7 °F /  -0.7 °C 30.73in /  1040.5hPa Calm     93% 0.00in /  0mm 25 W/m2
09:44 32.7 °F /  0.4 °C 30.9 °F /  -0.6 °C 30.73in /  1040.5hPa Calm     93% 0.00in /  0mm 26 W/m2
09:49 32.9 °F /  0.5 °C 31.1 °F /  -0.5 °C 30.73in /  1040.5hPa North 0.2mph /  0.3km/h 1mph /  1.6km/h 93% 0.00in /  0mm 26 W/m2
09:54 33.2 °F /  0.7 °C 31.4 °F /  -0.3 °C 30.73in /  1040.5hPa Calm     93% 0.00in /  0mm 30 W/m2
09:59 33.3 °F /  0.7 °C 31.5 °F /  -0.3 °C 30.73in /  1040.5hPa Calm   1mph /  1.6km/h 93% 0.00in /  0mm 32 W/m2
10:04 33.4 °F /  0.8 °C 31.6 °F /  -0.2 °C 30.73in /  1040.5hPa Calm   1mph /  1.6km/h 93% 0.00in /  0mm 33 W/m2
10:09 33.4 °F /  0.8 °C 31.6 °F /  -0.2 °C 30.73in /  1040.5hPa Calm     93% 0.00in /  0mm 33 W/m2
10:14 33.5 °F /  0.8 °C 31.7 °F /  -0.2 °C 30.73in /  1040.5hPa Calm     93% 0.00in /  0mm 33 W/m2
10:19 33.4 °F /  0.8 °C 31.6 °F /  -0.2 °C 30.73in /  1040.5hPa Calm     93% 0.00in /  0mm 33 W/m2
10:24 33.6 °F /  0.9 °C 31.8 °F /  -0.1 °C 30.73in /  1040.5hPa Calm     93% 0.00in /  0mm 33 W/m2
10:29 33.8 °F /  1 °C 32 °F /  0 °C 30.73in /  1040.5hPa Calm     93% 0.00in /  0mm 33 W/m2
10:34 33.9 °F /  1.1 °C 32.1 °F /  0.1 °C 30.73in /  1040.5hPa Calm     93% 0.00in /  0mm 33 W/m2
10:39 34 °F /  1.1 °C 32.2 °F /  0.1 °C 30.73in /  1040.5hPa Calm     93% 0.00in /  0mm 35 W/m2
10:44 34.2 °F /  1.2 °C 32.4 °F /  0.2 °C 30.73in /  1040.5hPa Calm     93% 0.00in /  0mm 35 W/m2
10:49 34.2 °F /  1.2 °C 32.4 °F /  0.2 °C 30.73in /  1040.5hPa Calm     93% 0.00in /  0mm 39 W/m2
10:54 34.3 °F /  1.3 °C 32.5 °F /  0.3 °C 30.73in /  1040.5hPa Calm     93% 0.00in /  0mm 44 W/m2
10:59 34.5 °F /  1.4 °C 32.7 °F /  0.4 °C 30.73in /  1040.5hPa Calm     93% 0.00in /  0mm 44 W/m2
11:04 34.6 °F /  1.4 °C 32.8 °F /  0.4 °C 30.73in /  1040.5hPa Calm     93% 0.00in /  0mm 44 W/m2
11:09 34.7 °F /  1.5 °C 32.9 °F /  0.5 °C 30.73in /  1040.5hPa Calm     93% 0.00in /  0mm 46 W/m2
11:14 35 °F /  1.7 °C 33.2 °F /  0.7 °C 30.73in /  1040.5hPa Calm     93% 0.00in /  0mm 47 W/m2
11:19 35.1 °F /  1.7 °C 33.1 °F /  0.6 °C 30.73in /  1040.5hPa Calm     92.5% 0.00in /  0mm 49 W/m2
11:24 35.3 °F /  1.8 °C 33.4 °F /  0.8 °C 30.72in /  1040.2hPa Calm     92.9% 0.00in /  0mm 49 W/m2
11:29 35.5 °F /  1.9 °C 33.5 °F /  0.8 °C 30.72in /  1040.2hPa Calm     92.4% 0.00in /  0mm 49 W/m2
11:34 35.6 °F /  2 °C 33.4 °F /  0.8 °C 30.72in /  1040.2hPa Calm     92% 0.00in /  0mm 53 W/m2
11:39 35.8 °F /  2.1 °C 34 °F /  1.1 °C 30.72in /  1040.2hPa Calm     92.8% 0.00in /  0mm 53 W/m2
11:44 36 °F /  2.2 °C 33.8 °F /  1 °C 30.72in /  1040.2hPa Calm     92% 0.00in /  0mm 62 W/m2
11:49 36 °F /  2.2 °C 33.8 °F /  1 °C 30.71in /  1039.8hPa Calm     92% 0.00in /  0mm 60 W/m2
11:54 36.1 °F /  2.3 °C 33.9 °F /  1.1 °C 30.71in /  1039.8hPa North 0.1mph /  0.2km/h 1mph /  1.6km/h 92% 0.00in /  0mm 63 W/m2
11:59 36.1 °F /  2.3 °C 34 °F /  1.1 °C 30.71in /  1039.8hPa Calm   1mph /  1.6km/h 92% 0.00in /  0mm 62 W/m2
12:04 36.2 °F /  2.3 °C 34.1 °F /  1.2 °C 30.71in /  1039.8hPa Calm     92% 0.00in /  0mm 62 W/m2
12:09 36.3 °F /  2.4 °C 34.2 °F /  1.2 °C 30.71in /  1039.8hPa Calm     92% 0.00in /  0mm 60 W/m2
12:14 36.3 °F /  2.4 °C 34.2 °F /  1.2 °C 30.71in /  1039.8hPa Calm     92% 0.00in /  0mm 56 W/m2
12:19 36.5 °F /  2.5 °C 34.3 °F /  1.3 °C 30.71in /  1039.8hPa Calm     91.8% 0.00in /  0mm 58 W/m2
12:24 36.6 °F /  2.6 °C 34.4 °F /  1.3 °C 30.71in /  1039.8hPa Calm     92% 0.00in /  0mm 56 W/m2
12:29 36.7 °F /  2.6 °C 34.3 °F /  1.3 °C 30.71in /  1039.8hPa Calm     91.1% 0.00in /  0mm 56 W/m2
12:34 36.9 °F /  2.7 °C 34.5 °F /  1.4 °C 30.71in /  1039.8hPa Calm     91% 0.00in /  0mm 56 W/m2
12:39 37 °F /  2.8 °C 34.6 °F /  1.4 °C 30.70in /  1039.5hPa Calm     91% 0.00in /  0mm 56 W/m2
12:44 37 °F /  2.8 °C 34.7 °F /  1.5 °C 30.70in /  1039.5hPa North 0.2mph /  0.3km/h 1mph /  1.6km/h 91% 0.00in /  0mm 54 W/m2
12:49 37 °F /  2.8 °C 34.7 °F /  1.5 °C 30.70in /  1039.5hPa Calm     91% 0.00in /  0mm 54 W/m2
12:54 37.1 °F /  2.8 °C 34.4 °F /  1.3 °C 30.70in /  1039.5hPa Calm     90% 0.00in /  0mm 51 W/m2
12:59 37.2 °F /  2.9 °C 34.5 °F /  1.4 °C 30.70in /  1039.5hPa Calm     90% 0.00in /  0mm 47 W/m2
13:04 37.2 °F /  2.9 °C 34.5 °F /  1.4 °C 30.70in /  1039.5hPa Calm     90% 0.00in /  0mm 51 W/m2
13:09 37.3 °F /  2.9 °C 34.6 °F /  1.4 °C 30.70in /  1039.5hPa Calm     90% 0.00in /  0mm 54 W/m2
13:14 37.5 °F /  3.1 °C 34.7 °F /  1.5 °C 30.70in /  1039.5hPa Calm     89.8% 0.00in /  0mm 53 W/m2
13:19 37.6 °F /  3.1 °C 34.8 °F /  1.6 °C 30.70in /  1039.5hPa Calm     89.2% 0.00in /  0mm 51 W/m2
13:24 37.8 °F /  3.2 °C 34.9 °F /  1.6 °C 30.69in /  1039.2hPa North 0.3mph /  0.5km/h 1mph /  1.6km/h 89% 0.00in /  0mm 51 W/m2
13:29 37.8 °F /  3.2 °C 34.9 °F /  1.6 °C 30.70in /  1039.5hPa Calm     89% 0.00in /  0mm 46 W/m2
13:34 37.8 °F /  3.2 °C 34.8 °F /  1.6 °C 30.69in /  1039.2hPa Calm     88.7% 0.00in /  0mm 47 W/m2
13:39 37.9 °F /  3.3 °C 35 °F /  1.7 °C 30.69in /  1039.2hPa Calm     89% 0.00in /  0mm 44 W/m2
13:44 38.1 °F /  3.4 °C 34.9 °F /  1.6 °C 30.70in /  1039.5hPa Calm     88.1% 0.00in /  0mm 44 W/m2
13:49 38.1 °F /  3.4 °C 34.9 °F /  1.6 °C 30.69in /  1039.2hPa Calm     88% 0.00in /  0mm 42 W/m2
13:54 38.2 °F /  3.4 °C 35 °F /  1.7 °C 30.69in /  1039.2hPa Calm     88% 0.00in /  0mm 42 W/m2
13:59 38.3 °F /  3.5 °C 35.1 °F /  1.7 °C 30.69in /  1039.2hPa Calm     88% 0.00in /  0mm 40 W/m2
14:04 38.3 °F /  3.5 °C 34.9 °F /  1.6 °C 30.69in /  1039.2hPa Calm     87.5% 0.00in /  0mm 40 W/m2
14:09 38.3 °F /  3.5 °C 34.7 °F /  1.5 °C 30.69in /  1039.2hPa Calm     87% 0.00in /  0mm 39 W/m2
14:14 38.3 °F /  3.5 °C 34.7 °F /  1.5 °C 30.70in /  1039.5hPa Calm     87% 0.00in /  0mm 35 W/m2
14:19 38.3 °F /  3.5 °C 34.7 °F /  1.5 °C 30.70in /  1039.5hPa Calm     87% 0.00in /  0mm 33 W/m2
14:24 38.4 °F /  3.6 °C 34.8 °F /  1.6 °C 30.70in /  1039.5hPa Calm     87% 0.00in /  0mm 32 W/m2
14:29 38.6 °F /  3.7 °C 35 °F /  1.7 °C 30.69in /  1039.2hPa Calm     87% 0.00in /  0mm 32 W/m2
14:34 38.7 °F /  3.7 °C 35.1 °F /  1.7 °C 30.69in /  1039.2hPa Calm     87% 0.00in /  0mm 30 W/m2
14:39 38.6 °F /  3.7 °C 35 °F /  1.7 °C 30.69in /  1039.2hPa Calm     87% 0.00in /  0mm 28 W/m2
14:44 38.7 °F /  3.7 °C 34.9 °F /  1.6 °C 30.70in /  1039.5hPa Calm     86.3% 0.00in /  0mm 28 W/m2
14:49 38.5 °F /  3.6 °C 34.7 °F /  1.5 °C 30.69in /  1039.2hPa Calm     86% 0.00in /  0mm 28 W/m2
14:54 38.5 °F /  3.6 °C 34.7 °F /  1.5 °C 30.70in /  1039.5hPa Calm     86% 0.00in /  0mm 26 W/m2
14:59 38.5 °F /  3.6 °C 34.7 °F /  1.5 °C 30.69in /  1039.2hPa Calm     86% 0.00in /  0mm 25 W/m2
15:04 38.5 °F /  3.6 °C 34.7 °F /  1.5 °C 30.70in /  1039.5hPa Calm     86% 0.00in /  0mm 21 W/m2
15:09 38.5 °F /  3.6 °C 34.7 °F /  1.5 °C 30.69in /  1039.2hPa Calm     86% 0.00in /  0mm 21 W/m2
15:14 38.6 °F /  3.7 °C 34.8 °F /  1.6 °C 30.69in /  1039.2hPa Calm     86% 0.00in /  0mm 19 W/m2
15:19 38.7 °F /  3.7 °C 34.9 °F /  1.6 °C 30.69in /  1039.2hPa Calm     86% 0.00in /  0mm 18 W/m2
15:24 38.5 °F /  3.6 °C 34.7 °F /  1.5 °C 30.69in /  1039.2hPa Calm     86% 0.00in /  0mm 14 W/m2
15:29 38.5 °F /  3.6 °C 34.7 °F /  1.5 °C 30.69in /  1039.2hPa Calm     86% 0.00in /  0mm 12 W/m2
15:34 38.5 °F /  3.6 °C 34.7 °F /  1.5 °C 30.69in /  1039.2hPa Calm     86% 0.00in /  0mm 12 W/m2
15:39 38.6 °F /  3.7 °C 34.8 °F /  1.6 °C 30.69in /  1039.2hPa Calm     86% 0.00in /  0mm 11 W/m2
15:44 38.7 °F /  3.7 °C 35 °F /  1.7 °C 30.69in /  1039.2hPa Calm     86% 0.00in /  0mm 9 W/m2
15:49 38.8 °F /  3.8 °C 35.1 °F /  1.7 °C 30.69in /  1039.2hPa Calm     86% 0.00in /  0mm 7 W/m2
15:54 38.8 °F /  3.8 °C 35.1 °F /  1.7 °C 30.69in /  1039.2hPa Calm     86% 0.00in /  0mm 7 W/m2
15:59 38.8 °F /  3.8 °C 35.1 °F /  1.7 °C 30.69in /  1039.2hPa Calm     86% 0.00in /  0mm 5 W/m2
16:04 38.8 °F /  3.8 °C 35.1 °F /  1.7 °C 30.69in /  1039.2hPa Calm     86% 0.00in /  0mm 0 W/m2
16:09 38.8 °F /  3.8 °C 35 °F /  1.7 °C 30.69in /  1039.2hPa Calm     86% 0.00in /  0mm 0 W/m2
16:14 38.7 °F /  3.7 °C 34.9 °F /  1.6 °C 30.69in /  1039.2hPa Calm     86.1% 0.00in /  0mm 0 W/m2
16:19 38.5 °F /  3.6 °C 34.9 °F /  1.6 °C 30.69in /  1039.2hPa Calm     87% 0.00in /  0mm 0 W/m2
16:24 38.5 °F /  3.6 °C 34.9 °F /  1.6 °C 30.69in /  1039.2hPa Calm     87% 0.00in /  0mm 0 W/m2
16:29 38.6 °F /  3.7 °C 35 °F /  1.7 °C 30.69in /  1039.2hPa Calm     87% 0.00in /  0mm 0 W/m2
16:34 38.7 °F /  3.7 °C 35.1 °F /  1.7 °C 30.68in /  1038.8hPa Calm     87% 0.00in /  0mm 0 W/m2
16:39 38.8 °F /  3.8 °C 35.2 °F /  1.8 °C 30.68in /  1038.8hPa Calm     87% 0.00in /  0mm 0 W/m2
16:44 38.8 °F /  3.8 °C 35.2 °F /  1.8 °C 30.68in /  1038.8hPa Calm     87% 0.00in /  0mm 0 W/m2
16:49 38.8 °F /  3.8 °C 35.2 °F /  1.8 °C 30.68in /  1038.8hPa Calm     87% 0.00in /  0mm 0 W/m2
16:54 38.8 °F /  3.8 °C 35.2 °F /  1.8 °C 30.68in /  1038.8hPa Calm     87% 0.00in /  0mm 0 W/m2
16:59 38.7 °F /  3.7 °C 35.1 °F /  1.7 °C 30.68in /  1038.8hPa Calm     87% 0.00in /  0mm 0 W/m2
17:04 38.7 °F /  3.7 °C 35.1 °F /  1.7 °C 30.68in /  1038.8hPa Calm     87% 0.00in /  0mm 0 W/m2
17:09 38.7 °F /  3.7 °C 35.1 °F /  1.7 °C 30.68in /  1038.8hPa Calm     87% 0.00in /  0mm 0 W/m2
17:14 38.6 °F /  3.7 °C 35 °F /  1.7 °C 30.68in /  1038.8hPa Calm     87% 0.00in /  0mm 0 W/m2
17:19 38.5 °F /  3.6 °C 35.1 °F /  1.7 °C 30.68in /  1038.8hPa Calm     87.5% 0.00in /  0mm 0 W/m2
17:24 38.5 °F /  3.6 °C 35.2 °F /  1.8 °C 30.68in /  1038.8hPa Calm     88% 0.00in /  0mm 0 W/m2
17:29 38.6 °F /  3.7 °C 35.3 °F /  1.8 °C 30.68in /  1038.8hPa Calm     88% 0.00in /  0mm 0 W/m2
17:34 38.5 °F /  3.6 °C 35.2 °F /  1.8 °C 30.68in /  1038.8hPa Calm     88% 0.00in /  0mm 0 W/m2
17:39 38.5 °F /  3.6 °C 35.2 °F /  1.8 °C 30.68in /  1038.8hPa Calm     88% 0.00in /  0mm 0 W/m2
17:44 38.4 °F /  3.6 °C 35.1 °F /  1.7 °C 30.68in /  1038.8hPa Calm     88% 0.00in /  0mm 0 W/m2
17:49 38.3 °F /  3.5 °C 35.1 °F /  1.7 °C 30.68in /  1038.8hPa Calm     88% 0.00in /  0mm 0 W/m2
17:54 38.3 °F /  3.5 °C 35.1 °F /  1.7 °C 30.68in /  1038.8hPa Calm     88% 0.00in /  0mm 0 W/m2
17:59 38.3 °F /  3.5 °C 35.1 °F /  1.7 °C 30.68in /  1038.8hPa North 0.2mph /  0.3km/h 1mph /  1.6km/h 88% 0.00in /  0mm 0 W/m2
18:04 38.3 °F /  3.5 °C 35.1 °F /  1.7 °C 30.68in /  1038.8hPa Calm     88% 0.00in /  0mm 0 W/m2
18:09 38.3 °F /  3.5 °C 35.1 °F /  1.7 °C 30.68in /  1038.8hPa Calm     88% 0.00in /  0mm 0 W/m2
18:14 38.3 °F /  3.5 °C 35.1 °F /  1.7 °C 30.68in /  1038.8hPa Calm     88% 0.00in /  0mm 0 W/m2
18:19 38.3 °F /  3.5 °C 35.2 °F /  1.8 °C 30.68in /  1038.8hPa Calm     88.2% 0.00in /  0mm 0 W/m2
18:24 38.4 °F /  3.6 °C 35.5 °F /  1.9 °C 30.68in /  1038.8hPa Calm     89% 0.00in /  0mm 0 W/m2
18:29 38.5 °F /  3.6 °C 35.6 °F /  2 °C 30.68in /  1038.8hPa Calm     89% 0.00in /  0mm 0 W/m2
18:34 38.6 °F /  3.7 °C 35.7 °F /  2.1 °C 30.68in /  1038.8hPa North 0.2mph /  0.3km/h 1mph /  1.6km/h 89% 0.00in /  0mm 0 W/m2
18:39 38.5 °F /  3.6 °C 35.6 °F /  2 °C 30.68in /  1038.8hPa Calm   1mph /  1.6km/h 89% 0.00in /  0mm 0 W/m2
18:44 38.4 °F /  3.6 °C 35.5 °F /  1.9 °C 30.68in /  1038.8hPa Calm     89% 0.00in /  0mm 0 W/m2
18:49 38.4 °F /  3.6 °C 35.5 °F /  1.9 °C 30.68in /  1038.8hPa Calm   1mph /  1.6km/h 89% 0.00in /  0mm 0 W/m2
18:54 38.4 °F /  3.6 °C 35.5 °F /  1.9 °C 30.67in /  1038.5hPa Calm   1mph /  1.6km/h 89% 0.00in /  0mm 0 W/m2
18:59 38.5 °F /  3.6 °C 35.6 °F /  2 °C 30.68in /  1038.8hPa Calm     89.3% 0.00in /  0mm 0 W/m2
19:04 38.5 °F /  3.6 °C 35.8 °F /  2.1 °C 30.68in /  1038.8hPa Calm     90% 0.00in /  0mm 0 W/m2
19:09 38.5 °F /  3.6 °C 35.8 °F /  2.1 °C 30.68in /  1038.8hPa Calm     90% 0.00in /  0mm 0 W/m2
19:14 38.5 °F /  3.6 °C 35.8 °F /  2.1 °C 30.68in /  1038.8hPa Calm     90% 0.00in /  0mm 0 W/m2
19:19 38.5 °F /  3.6 °C 35.8 °F /  2.1 °C 30.68in /  1038.8hPa North 0.1mph /  0.2km/h 1mph /  1.6km/h 90% 0.00in /  0mm 0 W/m2
19:24 38.5 °F /  3.6 °C 35.8 °F /  2.1 °C 30.68in /  1038.8hPa Calm   1mph /  1.6km/h 90% 0.00in /  0mm 0 W/m2
19:29 38.5 °F /  3.6 °C 35.8 °F /  2.1 °C 30.67in /  1038.5hPa Calm   1mph /  1.6km/h 90% 0.00in /  0mm 0 W/m2
19:34 38.5 °F /  3.6 °C 35.8 °F /  2.1 °C 30.67in /  1038.5hPa Calm     90% 0.00in /  0mm 0 W/m2
19:39 38.5 °F /  3.6 °C 35.8 °F /  2.1 °C 30.67in /  1038.5hPa Calm     90% 0.00in /  0mm 0 W/m2
19:44 38.6 °F /  3.7 °C 35.9 °F /  2.2 °C 30.67in /  1038.5hPa North 0.2mph /  0.3km/h 1mph /  1.6km/h 90% 0.00in /  0mm 0 W/m2
19:49 38.7 °F /  3.7 °C 36 °F /  2.2 °C 30.67in /  1038.5hPa Calm     90% 0.00in /  0mm 0 W/m2
19:54 38.7 °F /  3.7 °C 36 °F /  2.2 °C 30.67in /  1038.5hPa Calm     90% 0.00in /  0mm 0 W/m2
19:59 38.7 °F /  3.7 °C 36 °F /  2.2 °C 30.67in /  1038.5hPa Calm     90% 0.00in /  0mm 0 W/m2
20:04 38.7 °F /  3.7 °C 36 °F /  2.2 °C 30.67in /  1038.5hPa Calm     90% 0.00in /  0mm 0 W/m2
20:09 38.7 °F /  3.7 °C 36 °F /  2.2 °C 30.67in /  1038.5hPa Calm     90% 0.00in /  0mm 0 W/m2
20:14 38.8 °F /  3.8 °C 36.1 °F /  2.3 °C 30.66in /  1038.1hPa Calm     90% 0.00in /  0mm 0 W/m2
20:19 38.8 °F /  3.8 °C 36.1 °F /  2.3 °C 30.66in /  1038.1hPa Calm     90% 0.00in /  0mm 0 W/m2
20:24 38.8 °F /  3.8 °C 36.1 °F /  2.3 °C 30.66in /  1038.1hPa Calm     90% 0.00in /  0mm 0 W/m2
20:29 38.8 °F /  3.8 °C 36.1 °F /  2.3 °C 30.66in /  1038.1hPa Calm     90% 0.00in /  0mm 0 W/m2
20:34 38.8 °F /  3.8 °C 36.1 °F /  2.3 °C 30.67in /  1038.5hPa Calm     90% 0.00in /  0mm 0 W/m2
20:39 38.8 °F /  3.8 °C 36.1 °F /  2.3 °C 30.67in /  1038.5hPa Calm     90% 0.00in /  0mm 0 W/m2
20:44 38.8 °F /  3.8 °C 36.1 °F /  2.3 °C 30.67in /  1038.5hPa Calm     90% 0.00in /  0mm 0 W/m2
20:49 38.8 °F /  3.8 °C 36.1 °F /  2.3 °C 30.66in /  1038.1hPa Calm     90% 0.00in /  0mm 0 W/m2
20:54 38.9 °F /  3.8 °C 36.2 °F /  2.3 °C 30.66in /  1038.1hPa Calm     90% 0.00in /  0mm 0 W/m2
20:59 39 °F /  3.9 °C 36.4 °F /  2.4 °C 30.66in /  1038.1hPa Calm     90.3% 0.00in /  0mm 0 W/m2
21:04 39 °F /  3.9 °C 36.6 °F /  2.6 °C 30.66in /  1038.1hPa Calm     90.7% 0.00in /  0mm 0 W/m2
21:09 39 °F /  3.9 °C 36.4 °F /  2.4 °C 30.66in /  1038.1hPa Calm     90.3% 0.00in /  0mm 0 W/m2
21:14 39 °F /  3.9 °C 36.6 °F /  2.6 °C 30.66in /  1038.1hPa Calm     90.7% 0.00in /  0mm 0 W/m2
21:19 39 °F /  3.9 °C 36.6 °F /  2.6 °C 30.66in /  1038.1hPa Calm     90.9% 0.00in /  0mm 0 W/m2
21:24 39 °F /  3.9 °C 36.3 °F /  2.4 °C 30.67in /  1038.5hPa Calm     90% 0.00in /  0mm 0 W/m2
21:29 38.9 °F /  3.8 °C 36.4 °F /  2.4 °C 30.67in /  1038.5hPa Calm     90.4% 0.00in /  0mm 0 W/m2
21:34 39 °F /  3.9 °C 36.7 °F /  2.6 °C 30.67in /  1038.5hPa Calm     91% 0.00in /  0mm 0 W/m2
21:39 39 °F /  3.9 °C 36.7 °F /  2.6 °C 30.67in /  1038.5hPa Calm     91% 0.00in /  0mm 0 W/m2
21:44 39 °F /  3.9 °C 36.7 °F /  2.6 °C 30.67in /  1038.5hPa Calm     91% 0.00in /  0mm 0 W/m2
21:49 39.2 °F /  4 °C 36.9 °F /  2.7 °C 30.67in /  1038.5hPa Calm     91% 0.00in /  0mm 0 W/m2
21:54 39.2 °F /  4 °C 36.9 °F /  2.7 °C 30.67in /  1038.5hPa Calm     91% 0.00in /  0mm 0 W/m2
21:59 39.3 °F /  4.1 °C 36.9 °F /  2.7 °C 30.67in /  1038.5hPa Calm     91% 0.00in /  0mm 0 W/m2
22:04 39.3 °F /  4.1 °C 36.9 °F /  2.7 °C 30.67in /  1038.5hPa Calm     91% 0.00in /  0mm 0 W/m2
22:09 39.2 °F /  4 °C 36.9 °F /  2.7 °C 30.67in /  1038.5hPa Calm     91% 0.00in /  0mm 0 W/m2
22:14 39.2 °F /  4 °C 36.9 °F /  2.7 °C 30.67in /  1038.5hPa Calm     91% 0.00in /  0mm 0 W/m2
22:19 39.4 °F /  4.1 °C 37 °F /  2.8 °C 30.67in /  1038.5hPa Calm     91% 0.00in /  0mm 0 W/m2
22:24 39.4 °F /  4.1 °C 37 °F /  2.8 °C 30.67in /  1038.5hPa Calm     91% 0.00in /  0mm 0 W/m2
22:29 39.4 °F /  4.1 °C 37 °F /  2.8 °C 30.66in /  1038.1hPa Calm     91% 0.00in /  0mm 0 W/m2
22:34 39.4 °F /  4.1 °C 37 °F /  2.8 °C 30.66in /  1038.1hPa Calm     91% 0.00in /  0mm 0 W/m2
22:39 39.6 °F /  4.2 °C 37.2 °F /  2.9 °C 30.66in /  1038.1hPa Calm     91% 0.00in /  0mm 0 W/m2
22:44 39.6 °F /  4.2 °C 37.2 °F /  2.9 °C 30.66in /  1038.1hPa Calm     91% 0.00in /  0mm 0 W/m2
22:49 39.6 °F /  4.2 °C 37.2 °F /  2.9 °C 30.66in /  1038.1hPa Calm     91% 0.00in /  0mm 0 W/m2
22:54 39.5 °F /  4.2 °C 37.1 °F /  2.8 °C 30.66in /  1038.1hPa Calm     91% 0.00in /  0mm 0 W/m2
22:59 39.5 °F /  4.2 °C 37.1 °F /  2.8 °C 30.66in /  1038.1hPa Calm     91% 0.00in /  0mm 0 W/m2
23:04 39.6 °F /  4.2 °C 37.2 °F /  2.9 °C 30.66in /  1038.1hPa Calm     91% 0.00in /  0mm 0 W/m2
23:09 39.5 °F /  4.2 °C 37.1 °F /  2.8 °C 30.66in /  1038.1hPa Calm     91% 0.00in /  0mm 0 W/m2
23:14 39.4 °F /  4.1 °C 37 °F /  2.8 °C 30.66in /  1038.1hPa Calm     91% 0.00in /  0mm 0 W/m2
23:19 39.5 °F /  4.2 °C 37.1 °F /  2.8 °C 30.66in /  1038.1hPa Calm     91% 0.00in /  0mm 0 W/m2
23:24 39.6 °F /  4.2 °C 37.2 °F /  2.9 °C 30.66in /  1038.1hPa Calm     91% 0.00in /  0mm 0 W/m2
23:29 39.6 °F /  4.2 °C 37.2 °F /  2.9 °C 30.66in /  1038.1hPa Calm     91% 0.00in /  0mm 0 W/m2
23:34 39.5 °F /  4.2 °C 37.1 °F /  2.8 °C 30.66in /  1038.1hPa Calm     91% 0.00in /  0mm 0 W/m2
23:39 39.5 °F /  4.2 °C 37.1 °F /  2.8 °C 30.66in /  1038.1hPa Calm     91% 0.00in /  0mm 0 W/m2
23:44 39.5 °F /  4.2 °C 37.1 °F /  2.8 °C 30.66in /  1038.1hPa Calm     91% 0.00in /  0mm 0 W/m2
23:49 39.6 °F /  4.2 °C 37.2 °F /  2.9 °C 30.66in /  1038.1hPa Calm     91% 0.00in /  0mm 0 W/m2
23:54 39.6 °F /  4.2 °C 37.2 °F /  2.9 °C 30.66in /  1038.1hPa Calm     91% 0.00in /  0mm 0 W/m2
23:59 39.6 °F /  4.2 °C 37.2 °F /  2.9 °C 30.65in /  1037.8hPa Calm     91% 0.00in /  0mm 0 W/m2
Bath Spa Weather
Compliments of Weather Underground - 2 mb